Chaplin, Canada
Current Conditions -  °F | °C
As of 8:00 AM on Monday 24 Nov 2014 (Local Time) from CYYN Reporting Station
Broken Clouds Broken Clouds  
Wind Chill:   Ceiling: 6500
Heat Index: 16°   Visibility: 9mi
Dew Point: 14°   Wind: 10mph
Humidity: 93%   Direction: 240°WSW
Pressure: 29.88"   Gusts: NA
Location:  50.47°N, 106.67°W
Report Text: CYYN 241400Z AUTO 24009KT 9SM FEW047 BKN065 M09/M10 A2988 RMK SLP174
Loading
Personal Weather Stations






























Interactive Weather Map New forecast layout! Learn more

10-Day Weather Forecast

Advertisements
Track Severe Weather on mobile